Time;durP1;ratioP1;P1;durP2;ratioP2;P2;SDS_P1;SDS_P2;PMS_P1;PMS_P2;Temp;Humidity;BMP_temperature;BMP_pressure;BME280_temperature;BME280_humidity;BME280_pressure;Samples;Min_cycle;Max_cycle;Signal;HPM_P1;HPM_P2
2023/07/07 00:02:16;;;;;;;5.78;4.55;;;;;;;17.73;59.52;101805.44;5052599;28;20025;-74
2023/07/07 00:04:42;;;;;;;6.95;4.88;;;;;;;17.66;59.72;101800.94;5052717;28;20159;-74
2023/07/07 00:07:07;;;;;;;7.45;4.55;;;;;;;17.64;59.46;101800.38;5053031;28;20054;-73
2023/07/07 00:09:33;;;;;;;6.00;4.50;;;;;;;17.61;59.47;101803.75;5051653;28;20053;-74
2023/07/07 00:11:59;;;;;;;8.18;4.68;;;;;;;17.62;59.55;101804.59;5051875;28;20071;-74
2023/07/07 00:14:25;;;;;;;7.05;4.55;;;;;;;17.54;60.07;101797.53;5074145;28;20135;-74
2023/07/07 00:16:50;;;;;;;7.10;4.63;;;;;;;17.50;60.00;101801.19;5063502;28;20472;-74
2023/07/07 00:19:16;;;;;;;7.93;4.68;;;;;;;17.45;60.28;101799.22;5052454;28;20040;-74
2023/07/07 00:21:43;;;;;;;6.95;5.07;;;;;;;17.42;60.38;101805.38;5052262;28;20025;-74
2023/07/07 00:24:08;;;;;;;8.27;5.10;;;;;;;17.40;59.85;101800.03;5051566;28;20116;-73
2023/07/07 00:26:34;;;;;;;7.85;4.65;;;;;;;17.40;59.84;101807.59;5051793;28;20116;-74
2023/07/07 00:29:00;;;;;;;6.18;4.55;;;;;;;17.41;60.01;101804.53;5052106;28;20116;-73
2023/07/07 00:31:26;;;;;;;6.63;4.60;;;;;;;17.39;60.01;101805.91;5068643;28;20035;-73
2023/07/07 00:33:51;;;;;;;7.38;5.18;;;;;;;17.38;60.05;101793.84;5073361;28;20042;-73
2023/07/07 00:36:17;;;;;;;6.93;4.40;;;;;;;17.40;59.96;101801.97;5072276;28;20125;-74
2023/07/07 00:38:42;;;;;;;6.63;4.88;;;;;;;17.32;60.28;101794.94;5071144;28;20479;-73
2023/07/07 00:41:09;;;;;;;8.30;4.75;;;;;;;17.35;60.07;101807.59;5071470;28;20035;-73
2023/07/07 00:43:35;;;;;;;7.60;4.43;;;;;;;17.32;60.19;101810.94;5070743;28;20040;-73
2023/07/07 00:46:01;;;;;;;8.77;4.80;;;;;;;17.28;60.65;101804.19;5071220;28;20040;-73
2023/07/07 00:48:30;;;;;;;7.28;4.63;;;;;;;17.26;60.45;101807.28;5054169;28;20025;-74
2023/07/07 00:51:00;;;;;;;6.97;4.80;;;;;;;17.23;60.53;101807.00;5056200;28;20028;-73
2023/07/07 00:53:26;;;;;;;7.00;4.75;;;;;;;17.19;60.63;101812.31;5078612;28;20031;-74
2023/07/07 00:55:57;;;;;;;6.72;4.68;;;;;;;17.19;60.73;101801.06;5078389;28;20032;-73
2023/07/07 00:58:24;;;;;;;7.55;4.82;;;;;;;17.18;60.30;101796.59;5069721;28;20032;-75
2023/07/07 01:00:57;;;;;;;5.97;4.68;;;;;;;17.20;60.31;101802.75;5090029;28;20042;-74
2023/07/07 01:03:30;;;;;;;8.63;4.55;;;;;;;17.20;60.30;101808.38;5091340;28;20107;-74
2023/07/07 01:05:59;;;;;;;7.05;4.75;;;;;;;17.12;60.57;101817.31;5050292;28;20032;-74
2023/07/07 01:08:25;;;;;;;7.50;4.63;;;;;;;17.14;60.24;101809.47;5051973;28;20028;-74
2023/07/07 01:10:50;;;;;;;5.57;4.38;;;;;;;17.12;60.35;101809.75;5055182;28;20387;-75
2023/07/07 01:13:15;;;;;;;6.45;4.90;;;;;;;17.11;60.10;101812.84;5070926;28;20034;-74
2023/07/07 01:16:03;;;;;;;7.45;5.35;;;;;;;17.13;60.06;101811.44;5087217;28;20705;-74
2023/07/07 01:18:56;;;;;;;7.72;5.10;;;;;;;17.15;59.84;101813.97;5091742;28;20103;-74
2023/07/07 01:22:09;;;;;;;6.20;4.60;;;;;;;17.16;59.99;101815.66;5048510;28;20048;-74
2023/07/07 01:25:17;;;;;;;6.50;5.07;;;;;;;17.13;59.77;101817.06;5032093;28;20190;-74
2023/07/07 01:27:46;;;;;;;7.40;5.15;;;;;;;17.04;60.27;101809.44;5062312;28;20028;-75
2023/07/07 01:30:30;;;;;;;5.80;5.07;;;;;;;17.07;60.04;101808.88;5091704;28;20115;-75
2023/07/07 01:32:55;;;;;;;7.20;4.90;;;;;;;16.96;60.68;101809.94;5090698;28;20531;-75
2023/07/07 01:35:22;;;;;;;6.57;4.80;;;;;;;16.93;60.73;101812.16;5090858;28;20103;-75
2023/07/07 01:37:57;;;;;;;7.28;4.82;;;;;;;16.89;60.94;101811.03;5082429;28;20497;-75
2023/07/07 01:40:33;;;;;;;8.07;5.07;;;;;;;16.82;61.21;101806.78;5050658;28;20039;-74
2023/07/07 01:43:05;;;;;;;6.05;4.80;;;;;;;16.86;60.93;101810.75;5061286;28;20586;-74
2023/07/07 01:45:39;;;;;;;6.40;4.97;;;;;;;16.85;60.94;101807.06;5071270;28;20021;-75
2023/07/07 01:48:18;;;;;;;7.00;5.05;;;;;;;16.86;60.83;101808.78;5069207;28;20036;-74
2023/07/07 01:50:46;;;;;;;6.97;4.78;;;;;;;16.86;60.70;101808.78;5066397;28;20029;-74
2023/07/07 01:53:16;;;;;;;9.15;5.22;;;;;;;16.85;60.85;101807.06;5062390;28;20025;-75
2023/07/07 01:55:49;;;;;;;8.07;5.40;;;;;;;16.78;61.08;101809.31;5058587;28;20028;-74
2023/07/07 01:58:17;;;;;;;7.20;5.40;;;;;;;16.70;61.07;101804.16;5071830;28;20495;-74
2023/07/07 02:00:46;;;;;;;8.38;5.10;;;;;;;16.68;61.04;101804.44;5067887;28;20094;-74
2023/07/07 02:03:15;;;;;;;6.22;4.72;;;;;;;16.67;61.17;101801.91;5084123;28;20805;-75
2023/07/07 02:05:40;;;;;;;9.00;5.10;;;;;;;16.64;61.31;101799.66;5095438;28;20028;-75
2023/07/07 02:08:06;;;;;;;7.95;5.22;;;;;;;16.65;61.21;101802.16;5095162;28;20024;-75
2023/07/07 02:10:31;;;;;;;8.18;5.07;;;;;;;16.64;61.09;101805.25;5094168;28;20052;-75
2023/07/07 02:12:56;;;;;;;6.45;5.00;;;;;;;16.61;61.06;101802.97;5067729;28;20029;-75
2023/07/07 02:15:22;;;;;;;7.95;5.13;;;;;;;16.61;60.87;101798.22;5055079;28;20049;-74
2023/07/07 02:17:47;;;;;;;7.45;5.45;;;;;;;16.53;61.36;101798.72;5070235;28;20495;-74
2023/07/07 02:20:13;;;;;;;8.20;5.20;;;;;;;16.54;61.54;101799.56;5091835;28;20596;-74
2023/07/07 02:22:39;;;;;;;11.20;5.38;;;;;;;16.45;61.56;101796.44;5054202;28;20606;-75
2023/07/07 02:25:05;;;;;;;8.43;5.40;;;;;;;16.44;61.26;101795.59;5054318;28;20033;-74
2023/07/07 02:27:30;;;;;;;7.70;5.50;;;;;;;16.37;61.49;101799.75;5054271;28;20091;-74
2023/07/07 02:29:56;;;;;;;6.97;4.97;;;;;;;16.38;61.59;101788.25;5054339;28;20025;-74
2023/07/07 02:32:21;;;;;;;8.38;5.38;;;;;;;16.39;61.43;101792.75;5061257;28;20093;-74
2023/07/07 02:34:49;;;;;;;10.07;5.70;;;;;;;16.37;61.52;101794.97;5070351;28;20383;-74
2023/07/07 02:37:15;;;;;;;9.00;5.30;;;;;;;16.30;61.74;101797.16;5054523;28;20020;-74
2023/07/07 02:39:41;;;;;;;6.22;5.28;;;;;;;16.29;61.97;101803.03;5058137;28;20107;-74
2023/07/07 02:42:06;;;;;;;8.80;5.20;;;;;;;16.26;61.63;101793.22;5061368;28;20104;-74
2023/07/07 02:44:31;;;;;;;6.68;5.35;;;;;;;16.31;61.78;101795.19;5085411;28;20533;-74
2023/07/07 02:46:57;;;;;;;7.85;5.55;;;;;;;16.24;61.92;101794.63;5066915;28;20028;-74
2023/07/07 02:49:22;;;;;;;7.57;4.82;;;;;;;16.20;61.89;101802.69;5063680;28;20028;-74
2023/07/07 02:51:47;;;;;;;6.38;5.43;;;;;;;16.19;61.89;101804.66;5058733;28;20477;-74
2023/07/07 02:54:13;;;;;;;9.13;6.60;;;;;;;16.15;61.98;101803.50;5053787;28;20033;-74
2023/07/07 02:56:38;;;;;;;8.43;6.35;;;;;;;16.17;61.79;101806.88;5055436;28;20462;-74
2023/07/07 02:59:04;;;;;;;11.10;5.95;;;;;;;16.13;61.95;101810.47;5054713;28;20479;-74
2023/07/07 03:01:32;;;;;;;6.38;5.72;;;;;;;16.13;61.75;101821.69;5053535;28;20060;-74
2023/07/07 03:03:57;;;;;;;9.18;6.20;;;;;;;16.13;61.79;101821.69;5065976;28;20032;-75
2023/07/07 03:06:23;;;;;;;8.15;6.47;;;;;;;16.06;61.87;101821.91;5071837;28;20028;-75
2023/07/07 03:08:49;;;;;;;8.00;5.70;;;;;;;16.05;61.95;101820.22;5061689;28;20523;-75
2023/07/07 03:11:18;;;;;;;8.68;5.05;;;;;;;16.03;62.18;101818.78;5054116;28;20029;-75
2023/07/07 03:13:45;;;;;;;11.13;6.10;;;;;;;16.02;61.97;101820.75;5058492;28;20021;-74
2023/07/07 03:16:20;;;;;;;6.80;5.75;;;;;;;16.00;61.69;101824.94;5052830;28;20072;-74
2023/07/07 03:18:47;;;;;;;6.80;5.95;;;;;;;16.00;61.77;101827.75;5053097;28;20029;-74
2023/07/07 03:21:12;;;;;;;9.35;6.70;;;;;;;15.98;62.02;101824.34;5075694;28;20031;-74
2023/07/07 03:23:39;;;;;;;8.35;5.88;;;;;;;16.00;61.79;101822.13;5057304;28;20040;-74
2023/07/07 03:26:16;;;;;;;7.63;6.10;;;;;;;15.97;61.90;101819.88;5061627;28;20050;-74
2023/07/07 03:28:41;;;;;;;7.25;6.03;;;;;;;15.91;62.12;101822.59;5057869;28;20047;-74
2023/07/07 03:31:12;;;;;;;9.65;6.18;;;;;;;15.90;62.17;101823.72;5060945;28;20524;-74
2023/07/07 03:33:43;;;;;;;8.80;6.15;;;;;;;15.86;62.01;101824.50;5070846;28;20036;-74
2023/07/07 03:36:12;;;;;;;9.40;5.93;;;;;;;15.84;62.24;101816.38;5073773;28;20119;-74
2023/07/07 03:38:41;;;;;;;7.95;6.45;;;;;;;15.85;62.37;101826.47;5071893;28;20491;-74
2023/07/07 03:41:10;;;;;;;10.93;6.32;;;;;;;15.82;62.47;101823.34;5067017;28;20112;-74
2023/07/07 03:43:37;;;;;;;8.63;6.75;;;;;;;15.78;61.91;101822.19;5053878;28;20366;-74
2023/07/07 03:46:03;;;;;;;10.68;6.03;;;;;;;15.79;62.38;101821.91;5063596;28;20059;-74
2023/07/07 03:48:29;;;;;;;9.90;6.85;;;;;;;15.77;62.37;101815.75;5063335;28;20087;-74
2023/07/07 03:51:02;;;;;;;10.13;7.05;;;;;;;15.75;62.48;101820.75;5053017;28;20028;-74
2023/07/07 03:53:29;;;;;;;13.77;7.13;;;;;;;15.74;62.54;101823.84;5053650;28;20282;-74
2023/07/07 03:55:55;;;;;;;9.13;7.05;;;;;;;15.64;62.47;101830.13;5051821;28;20033;-74
2023/07/07 03:58:21;;;;;;;10.07;7.40;;;;;;;15.68;62.51;101825.75;5058196;28;20024;-73
2023/07/07 04:00:48;;;;;;;11.07;7.43;;;;;;;15.67;62.62;101818.44;5070920;28;20832;-74
2023/07/07 04:03:14;;;;;;;11.95;6.65;;;;;;;15.68;62.67;101814.56;5073507;28;20024;-74
2023/07/07 04:05:41;;;;;;;11.57;7.25;;;;;;;15.63;62.83;101818.09;5092222;28;20028;-74
2023/07/07 04:08:06;;;;;;;9.48;6.75;;;;;;;15.66;62.65;101817.59;5052171;28;20029;-74
2023/07/07 04:10:32;;;;;;;11.35;7.18;;;;;;;15.67;62.49;101829.63;5052478;28;20047;-74
2023/07/07 04:12:57;;;;;;;10.25;7.25;;;;;;;15.66;62.59;101819.56;5052736;28;20032;-74
2023/07/07 04:15:22;;;;;;;10.10;7.32;;;;;;;15.62;63.04;101818.34;5051126;28;20045;-74
2023/07/07 04:17:47;;;;;;;9.43;7.25;;;;;;;15.62;63.07;101824.78;5056102;28;20446;-74
2023/07/07 04:20:13;;;;;;;11.57;7.30;;;;;;;15.62;62.98;101836.00;5092151;28;20031;-74
2023/07/07 04:22:38;;;;;;;10.10;7.10;;;;;;;15.62;62.82;101832.34;5086509;28;20036;-74
2023/07/07 04:25:12;;;;;;;9.43;6.75;;;;;;;15.67;62.95;101832.44;5054916;28;20036;-74
2023/07/07 04:27:38;;;;;;;11.95;7.20;;;;;;;15.66;63.14;101839.16;5052545;28;20495;-74
2023/07/07 04:30:05;;;;;;;8.68;7.10;;;;;;;15.63;63.38;101840.47;5051687;28;20047;-74
2023/07/07 04:32:30;;;;;;;10.82;7.57;;;;;;;15.69;63.36;101836.66;5053531;28;20499;-74
2023/07/07 04:34:55;;;;;;;11.98;6.97;;;;;;;15.66;63.85;101842.78;5071917;28;20021;-74
2023/07/07 04:37:21;;;;;;;8.70;7.22;;;;;;;15.67;63.56;101847.25;5083680;28;20028;-74
2023/07/07 04:39:48;;;;;;;12.48;7.15;;;;;;;15.64;63.84;101836.59;5092537;28;20073;-74
2023/07/07 04:42:14;;;;;;;10.23;7.35;;;;;;;15.68;64.21;101836.94;5068132;28;20029;-74
2023/07/07 04:44:39;;;;;;;13.98;7.75;;;;;;;15.73;64.21;101833.34;5051510;28;20492;-74
2023/07/07 04:47:04;;;;;;;11.48;7.95;;;;;;;15.73;64.34;101836.16;5051850;28;20555;-74
2023/07/07 04:49:30;;;;;;;10.88;7.43;;;;;;;15.78;64.52;101833.38;5051599;28;20029;-74
2023/07/07 04:51:55;;;;;;;10.05;7.47;;;;;;;15.87;64.17;101829.84;5075781;28;20526;-74
2023/07/07 04:54:20;;;;;;;9.15;7.45;;;;;;;15.88;64.17;101834.34;5074207;28;20028;-74
2023/07/07 04:56:45;;;;;;;9.65;7.00;;;;;;;15.92;64.43;101827.09;5071393;28;20071;-74
2023/07/07 04:59:11;;;;;;;12.27;7.30;;;;;;;15.93;64.52;101834.38;5054853;28;20107;-74
2023/07/07 05:01:37;;;;;;;9.70;6.70;;;;;;;15.97;64.49;101831.06;5057455;28;20477;-74
2023/07/07 05:04:04;;;;;;;11.95;6.80;;;;;;;16.04;63.90;101838.13;5069083;28;20472;-75
2023/07/07 05:06:33;;;;;;;8.77;7.25;;;;;;;16.07;64.54;101834.81;5071097;28;20383;-74
2023/07/07 05:09:00;;;;;;;7.80;6.95;;;;;;;16.11;64.76;101837.91;5071641;28;20033;-75
2023/07/07 05:11:28;;;;;;;9.65;6.80;;;;;;;16.13;64.96;101836.53;5070240;28;20133;-74
2023/07/07 05:13:54;;;;;;;10.95;6.75;;;;;;;16.14;64.90;101838.22;5070587;28;20029;-74
2023/07/07 05:16:22;;;;;;;9.02;6.38;;;;;;;16.24;64.43;101842.22;5070959;28;20095;-74
2023/07/07 05:18:47;;;;;;;9.65;6.50;;;;;;;16.35;63.89;101835.59;5064969;28;20028;-73
2023/07/07 05:21:15;;;;;;;11.25;6.15;;;;;;;16.40;63.81;101833.66;5064622;28;20074;-72
2023/07/07 05:23:40;;;;;;;10.65;6.32;;;;;;;16.53;63.54;101837.97;5070362;28;20037;-71
2023/07/07 05:26:06;;;;;;;8.13;5.95;;;;;;;16.61;63.75;101837.47;5069794;28;20472;-71
2023/07/07 05:28:32;;;;;;;12.07;5.82;;;;;;;16.65;63.93;101841.41;5071047;28;20112;-71
2023/07/07 05:30:57;;;;;;;11.55;5.30;;;;;;;16.73;62.42;101840.09;5064668;28;20029;-72
2023/07/07 05:33:23;;;;;;;10.73;5.35;;;;;;;16.86;62.14;101838.78;5050342;28;20036;-71
2023/07/07 05:35:51;;;;;;;9.75;5.55;;;;;;;16.92;61.20;101846.94;5049588;28;20482;-71
2023/07/07 05:38:17;;;;;;;10.32;5.47;;;;;;;17.02;60.85;101842.53;5060843;28;20040;-71
2023/07/07 05:40:45;;;;;;;8.75;5.07;;;;;;;17.11;60.71;101838.06;5050211;28;20029;-72
2023/07/07 05:43:14;;;;;;;9.40;5.35;;;;;;;17.19;60.20;101843.16;5051115;28;20064;-71
2023/07/07 05:45:39;;;;;;;7.82;4.72;;;;;;;17.36;61.68;101843.78;5053322;28;20028;-76
2023/07/07 05:48:05;;;;;;;5.78;3.60;;;;;;;17.62;62.89;101852.31;5051585;28;20492;-73
2023/07/07 05:50:31;;;;;;;5.25;3.20;;;;;;;17.83;62.56;101854.06;5050988;28;20468;-77
2023/07/07 05:52:57;;;;;;;6.00;3.35;;;;;;;18.00;62.20;101851.03;5058262;28;20115;-76
2023/07/07 05:55:29;;;;;;;5.28;3.42;;;;;;;18.13;60.58;101853.28;5061127;28;20111;-76
2023/07/07 05:57:54;;;;;;;6.90;3.42;;;;;;;18.27;59.96;101853.56;5069411;28;20074;-75
2023/07/07 06:00:21;;;;;;;12.02;4.15;;;;;;;18.42;59.63;101849.06;5068807;28;20036;-76
2023/07/07 06:02:46;;;;;;;7.55;3.88;;;;;;;18.54;59.33;101844.81;5066830;28;20143;-75
2023/07/07 06:05:11;;;;;;;7.32;3.88;;;;;;;18.62;58.06;101841.44;5061722;28;20111;-77
2023/07/07 06:07:36;;;;;;;7.72;3.60;;;;;;;18.70;57.75;101845.69;5068229;28;20060;-76
2023/07/07 06:10:02;;;;;;;6.18;3.35;;;;;;;18.79;57.43;101843.16;5050825;28;20104;-75
2023/07/07 06:12:28;;;;;;;7.20;3.97;;;;;;;18.80;57.29;101845.69;5052186;28;20487;-75
2023/07/07 06:14:53;;;;;;;5.90;4.07;;;;;;;18.81;56.12;101840.88;5061854;28;20079;-76
2023/07/07 06:17:18;;;;;;;7.55;3.78;;;;;;;18.96;56.58;101840.84;5074279;28;20033;-76
2023/07/07 06:19:44;;;;;;;5.75;3.80;;;;;;;19.06;56.08;101843.66;5073447;28;20021;-75
2023/07/07 06:22:09;;;;;;;6.68;3.88;;;;;;;19.10;55.38;101843.91;5062938;28;20428;-75
2023/07/07 06:24:34;;;;;;;5.55;3.60;;;;;;;19.24;55.46;101846.94;5057665;28;20040;-75
2023/07/07 06:27:00;;;;;;;6.45;3.20;;;;;;;19.38;54.76;101837.59;5051003;28;20029;-76
2023/07/07 06:29:25;;;;;;;6.40;3.80;;;;;;;19.47;55.03;101846.28;5048943;28;20098;-75
2023/07/07 06:31:50;;;;;;;6.20;3.20;;;;;;;19.56;54.83;101846.53;5058209;28;20426;-74
2023/07/07 06:34:16;;;;;;;5.72;3.25;;;;;;;19.61;54.26;101841.75;5074408;28;20464;-74
2023/07/07 06:36:41;;;;;;;6.50;3.60;;;;;;;19.68;54.20;101847.03;5057888;28;20025;-75
2023/07/07 06:39:06;;;;;;;5.93;3.50;;;;;;;19.76;53.95;101852.06;5052527;28;20104;-75
2023/07/07 06:41:31;;;;;;;5.78;3.42;;;;;;;19.90;53.43;101848.63;5053249;28;20729;-74
2023/07/07 06:43:57;;;;;;;5.53;3.30;;;;;;;19.98;53.38;101842.38;5052672;28;20396;-75
2023/07/07 06:46:25;;;;;;;6.00;3.55;;;;;;;20.01;53.12;101855.88;5053615;28;20055;-75
2023/07/07 06:48:50;;;;;;;8.15;4.00;;;;;;;20.01;53.21;101847.41;5069883;28;20024;-75
2023/07/07 06:51:15;;;;;;;6.32;3.20;;;;;;;20.09;53.12;101858.06;5059322;28;20130;-75
2023/07/07 06:53:41;;;;;;;10.25;3.45;;;;;;;20.14;52.34;101854.38;5070500;28;20039;-76
2023/07/07 06:56:06;;;;;;;7.28;4.10;;;;;;;20.10;50.80;101854.09;5069694;28;20035;-75
2023/07/07 06:58:33;;;;;;;7.90;3.33;;;;;;;20.20;51.32;101851.22;5053718;28;20056;-74
2023/07/07 07:00:59;;;;;;;5.30;2.75;;;;;;;20.27;52.16;101862.97;5052818;28;20025;-75
2023/07/07 07:03:24;;;;;;;7.63;2.60;;;;;;;20.32;51.76;101873.41;5058602;28;20035;-75
2023/07/07 07:05:50;;;;;;;5.13;2.90;;;;;;;20.34;51.76;101866.31;5092143;28;20024;-75
2023/07/07 07:08:15;;;;;;;5.03;2.90;;;;;;;20.43;51.79;101862.84;5076462;28;20443;-76
2023/07/07 07:10:40;;;;;;;4.47;2.78;;;;;;;20.47;51.39;101856.31;5071389;28;20040;-75
2023/07/07 07:13:07;;;;;;;5.50;3.05;;;;;;;20.51;51.52;101867.91;5070624;28;20041;-75
2023/07/07 07:15:33;;;;;;;8.65;3.15;;;;;;;20.54;51.35;101856.03;5071803;28;20044;-75
2023/07/07 07:17:59;;;;;;;7.05;3.00;;;;;;;20.56;51.55;101856.59;5064448;28;20089;-75
2023/07/07 07:20:24;;;;;;;5.45;2.60;;;;;;;20.62;51.61;101874.28;5093098;28;20363;-75
2023/07/07 07:22:49;;;;;;;7.75;2.95;;;;;;;20.66;50.13;101864.09;5068722;28;20032;-74
2023/07/07 07:25:15;;;;;;;6.65;3.13;;;;;;;20.65;49.34;101866.09;5070834;28;20027;-75
2023/07/07 07:27:40;;;;;;;5.65;3.17;;;;;;;20.72;50.16;101863.75;5065235;28;20198;-74
2023/07/07 07:30:08;;;;;;;5.20;2.75;;;;;;;20.78;49.53;101871.00;5078420;28;20388;-77
2023/07/07 07:32:34;;;;;;;4.70;2.85;;;;;;;20.80;48.99;101871.56;5091637;28;20077;-77
2023/07/07 07:35:00;;;;;;;4.38;2.70;;;;;;;20.88;49.50;101853.16;5091693;28;20035;-75
2023/07/07 07:37:25;;;;;;;5.38;2.75;;;;;;;20.91;49.84;101868.66;5072691;28;20028;-75
2023/07/07 07:39:51;;;;;;;6.05;2.95;;;;;;;20.97;49.78;101876.75;5061343;28;20472;-75
2023/07/07 07:42:16;;;;;;;3.72;2.53;;;;;;;21.08;48.49;101863.38;5070754;28;20024;-75
2023/07/07 07:44:42;;;;;;;6.28;2.70;;;;;;;21.12;48.54;101870.09;5070589;28;20071;-75
2023/07/07 07:47:08;;;;;;;6.20;3.00;;;;;;;21.17;48.44;101867.22;5071384;28;20032;-75
2023/07/07 07:49:33;;;;;;;5.80;2.80;;;;;;;21.21;48.40;101867.47;5071832;28;20035;-75
2023/07/07 07:51:59;;;;;;;6.35;2.40;;;;;;;21.29;48.40;101864.81;5062222;28;20101;-74
2023/07/07 07:54:25;;;;;;;7.75;2.90;;;;;;;21.41;48.01;101869.22;5067387;28;20476;-75
2023/07/07 07:56:51;;;;;;;6.18;2.83;;;;;;;21.38;47.35;101873.50;5062240;28;20035;-74
2023/07/07 07:59:17;;;;;;;6.03;2.75;;;;;;;21.57;47.93;101870.69;5079125;28;20447;-74
2023/07/07 08:01:42;;;;;;;4.65;2.67;;;;;;;21.56;47.50;101871.84;5051512;28;20029;-74
2023/07/07 08:04:08;;;;;;;6.93;2.38;;;;;;;21.58;47.61;101872.41;5052149;28;20028;-75
2023/07/07 08:06:34;;;;;;;4.65;2.67;;;;;;;21.85;47.07;101874.59;5051401;28;20037;-75
2023/07/07 08:08:59;;;;;;;4.07;2.40;;;;;;;21.84;47.89;101874.88;5051464;28;20021;-75
2023/07/07 08:11:48;;;;;;;4.40;2.58;;;;;;;21.90;48.54;101884.97;5051243;28;20547;-75
2023/07/07 08:14:19;;;;;;;4.10;2.50;;;;;;;22.12;47.20;101882.34;5065528;28;20118;-74
2023/07/07 08:16:49;;;;;;;3.28;2.30;;;;;;;22.23;46.75;101878.25;5065383;28;20078;-75
2023/07/07 08:19:14;;;;;;;5.82;2.40;;;;;;;22.22;46.42;101876.56;5071585;28;20020;-75
2023/07/07 08:21:39;;;;;;;5.35;2.63;;;;;;;22.23;45.11;101883.06;5070894;28;20261;-75
2023/07/07 08:24:05;;;;;;;5.82;2.75;;;;;;;22.32;45.83;101880.38;5071759;28;20036;-75
2023/07/07 08:26:31;;;;;;;4.47;2.50;;;;;;;22.44;45.46;101875.06;5070742;28;20055;-75
2023/07/07 08:28:57;;;;;;;4.68;2.80;;;;;;;22.54;45.53;101884.25;5070250;28;20027;-74
2023/07/07 08:31:22;;;;;;;4.40;2.47;;;;;;;22.63;45.64;101878.72;5089272;28;20505;-75
2023/07/07 08:33:48;;;;;;;4.90;2.30;;;;;;;22.66;45.28;101872.44;5075546;28;20052;-75
2023/07/07 08:36:13;;;;;;;5.55;2.40;;;;;;;22.75;44.96;101875.38;5050581;28;20473;-75
2023/07/07 08:38:39;;;;;;;5.53;2.30;;;;;;;22.69;44.39;101880.31;5050731;28;20037;-75
2023/07/07 08:41:05;;;;;;;4.60;2.38;;;;;;;22.74;44.12;101876.53;5051618;28;20031;-75
2023/07/07 08:43:30;;;;;;;4.35;2.30;;;;;;;22.76;43.81;101880.75;5050596;28;20155;-76
2023/07/07 08:46:23;;;;;;;4.93;2.88;;;;;;;22.82;45.05;101869.31;5050730;28;20037;-75
2023/07/07 08:48:56;;;;;;;5.70;2.40;;;;;;;22.93;45.50;101877.34;5074600;28;20039;-75
2023/07/07 08:51:30;;;;;;;6.88;2.58;;;;;;;23.06;44.10;101877.69;5063660;28;20387;-76
2023/07/07 08:54:14;;;;;;;4.25;2.30;;;;;;;23.12;44.31;101884.94;5080122;28;20035;-75
2023/07/07 08:56:49;;;;;;;4.60;2.40;;;;;;;23.34;43.07;101876.53;5081206;28;20043;-75
2023/07/07 08:59:32;;;;;;;4.75;2.38;;;;;;;23.45;43.05;101874.34;5090100;28;20089;-75
2023/07/07 09:02:30;;;;;;;3.85;2.20;;;;;;;23.53;43.13;101877.25;5072263;28;20050;-76
2023/07/07 09:05:16;;;;;;;3.97;1.90;;;;;;;23.49;42.42;101876.22;5070062;28;20399;-75
2023/07/07 09:08:08;;;;;;;3.03;2.10;;;;;;;23.58;42.21;101873.50;5061172;28;20120;-76
2023/07/07 09:10:36;;;;;;;2.85;2.13;;;;;;;23.53;40.81;101867.91;5062668;28;20032;-75
2023/07/07 09:13:05;;;;;;;3.88;2.20;;;;;;;23.47;41.86;101872.88;5091453;28;20368;-75
2023/07/07 09:15:39;;;;;;;3.83;2.40;;;;;;;23.52;41.30;101878.41;5090575;28;20129;-76
2023/07/07 09:18:22;;;;;;;3.22;1.75;;;;;;;23.64;41.84;101877.88;5090842;28;20034;-75
2023/07/07 09:20:55;;;;;;;3.55;2.30;;;;;;;23.71;40.53;101869.81;5088123;28;20032;-76
2023/07/07 09:23:25;;;;;;;4.50;2.47;;;;;;;23.79;40.96;101870.25;5069850;28;20127;-75
2023/07/07 09:26:23;;;;;;;3.67;2.40;;;;;;;23.90;41.85;101866.84;5069860;28;20033;-76
2023/07/07 09:28:53;;;;;;;7.47;2.50;;;;;;;23.93;40.17;101868.19;5062869;28;20111;-75
2023/07/07 09:31:32;;;;;;;3.50;2.10;;;;;;;23.92;41.20;101875.88;5070810;28;20054;-75
2023/07/07 09:34:02;;;;;;;6.70;2.20;;;;;;;23.89;39.79;101878.50;5071281;28;20141;-75
2023/07/07 09:36:50;;;;;;;3.22;2.30;;;;;;;24.00;38.66;101862.94;5075960;28;20032;-76
2023/07/07 09:39:37;;;;;;;3.63;2.67;;;;;;;24.17;40.38;101865.06;5089726;28;20028;-75
2023/07/07 09:42:39;;;;;;;3.05;2.33;;;;;;;24.21;41.19;101863.28;5090883;28;20475;-75
2023/07/07 09:45:17;;;;;;;5.18;2.15;;;;;;;24.39;40.10;101864.28;5081106;28;20032;-76
2023/07/07 09:47:49;;;;;;;3.47;2.25;;;;;;;24.34;39.34;101861.56;5049556;28;20077;-75
2023/07/07 09:50:28;;;;;;;7.53;2.42;;;;;;;24.33;38.47;101851.38;5050022;28;20029;-75
2023/07/07 09:53:04;;;;;;;6.45;2.40;;;;;;;24.17;39.06;101860.25;5049560;28;20120;-75
2023/07/07 09:55:32;;;;;;;4.22;2.42;;;;;;;24.38;39.05;101854.94;5049679;28;20480;-76
2023/07/07 09:58:19;;;;;;;4.55;2.42;;;;;;;24.39;39.35;101848.09;5050338;28;20025;-75
2023/07/07 10:00:58;;;;;;;4.03;2.70;;;;;;;24.33;38.36;101842.84;5075044;28;20036;-75
2023/07/07 10:03:27;;;;;;;4.47;2.35;;;;;;;24.40;39.31;101844.09;5069567;28;20029;-75
2023/07/07 10:05:57;;;;;;;4.40;2.63;;;;;;;24.51;38.97;101847.50;5070454;28;20107;-75
2023/07/07 10:08:23;;;;;;;4.35;2.97;;;;;;;24.58;38.77;101842.22;5069198;28;20035;-75
2023/07/07 10:11:10;;;;;;;5.28;2.67;;;;;;;24.58;39.05;101845.06;5070322;28;20033;-75
2023/07/07 10:13:36;;;;;;;4.22;2.10;;;;;;;24.64;37.46;101842.91;5070477;28;20446;-75
2023/07/07 10:16:07;;;;;;;4.65;2.65;;;;;;;24.53;36.35;101839.53;5072389;28;20123;-75
2023/07/07 10:18:33;;;;;;;3.78;2.38;;;;;;;24.59;36.07;101835.38;5064081;28;20029;-75
2023/07/07 10:21:02;;;;;;;4.95;2.30;;;;;;;24.67;36.98;101833.75;5053118;28;20733;-75
2023/07/07 10:23:28;;;;;;;5.43;2.20;;;;;;;24.65;37.35;101838.91;5053431;28;20060;-75
2023/07/07 10:25:55;;;;;;;5.72;2.35;;;;;;;24.68;37.16;101835.41;5054251;28;20040;-75
2023/07/07 10:28:22;;;;;;;4.80;2.47;;;;;;;24.72;37.19;101834.47;5052912;28;20033;-77
2023/07/07 10:30:48;;;;;;;4.88;2.72;;;;;;;24.76;37.14;101839.47;5069629;28;20028;-75
2023/07/07 10:33:16;;;;;;;3.47;2.20;;;;;;;24.79;37.59;101831.13;5092846;28;20039;-76
2023/07/07 10:35:42;;;;;;;3.83;2.25;;;;;;;24.91;36.97;101825.69;5069944;28;20072;-76
2023/07/07 10:38:09;;;;;;;3.20;2.38;;;;;;;25.11;37.31;101832.84;5073780;28;20552;-75
2023/07/07 10:40:35;;;;;;;5.35;2.40;;;;;;;25.04;35.96;101818.25;5073554;28;20062;-75
2023/07/07 10:43:02;;;;;;;5.30;2.40;;;;;;;25.05;35.88;101825.59;5066334;28;20423;-76
2023/07/07 10:45:28;;;;;;;4.68;2.25;;;;;;;25.00;37.38;101828.59;5069032;28;20036;-75
2023/07/07 10:47:54;;;;;;;4.47;2.38;;;;;;;25.01;36.15;101818.06;5092735;28;20024;-74
2023/07/07 10:50:22;;;;;;;2.60;2.10;;;;;;;24.92;35.07;101815.19;5080617;28;20543;-75
2023/07/07 10:53:12;;;;;;;4.15;2.50;;;;;;;25.06;36.23;101830.09;5069647;28;20525;-76
2023/07/07 10:56:07;;;;;;;4.15;2.50;;;;;;;25.10;36.23;101831.13;5068902;28;20488;-69
2023/07/07 10:58:49;;;;;;;4.43;2.50;;;;;;;25.27;36.17;101826.69;5057787;28;20090;-72
2023/07/07 11:01:39;;;;;;;4.40;2.40;;;;;;;25.21;35.66;101826.84;5053765;28;20025;-74
2023/07/07 11:04:47;;;;;;;5.40;2.33;;;;;;;25.28;34.81;101812.16;5056897;28;20190;-76
2023/07/07 11:07:32;;;;;;;3.08;2.50;;;;;;;25.22;34.28;101810.63;5045222;28;20147;-74
2023/07/07 11:10:25;;;;;;;3.25;2.38;;;;;;;25.22;34.59;101808.63;5068272;28;20040;-74
2023/07/07 11:13:11;;;;;;;5.25;2.60;;;;;;;25.34;35.09;101810.81;5053903;28;20029;-74
2023/07/07 11:15:57;;;;;;;4.07;2.60;;;;;;;25.37;34.92;101815.03;5052812;28;20649;-75
2023/07/07 11:19:03;;;;;;;5.50;2.72;;;;;;;25.36;34.85;101807.69;5063188;28;20108;-77
2023/07/07 11:21:57;;;;;;;5.15;2.70;;;;;;;25.36;35.20;101805.66;5085506;28;20052;-77
2023/07/07 11:24:32;;;;;;;5.82;2.83;;;;;;;25.48;35.06;101799.34;5060192;28;20103;-77
2023/07/07 11:27:35;;;;;;;5.55;2.50;;;;;;;25.52;34.89;101802.34;5061652;28;20095;-77
2023/07/07 11:30:22;;;;;;;3.50;2.55;;;;;;;25.62;34.07;101802.88;5087192;28;20391;-76
2023/07/07 11:33:18;;;;;;;4.47;2.40;;;;;;;25.66;33.52;101794.50;5092971;28;20036;-77
2023/07/07 11:36:08;;;;;;;5.65;2.67;;;;;;;25.72;34.17;101796.03;5070743;28;20035;-77
2023/07/07 11:38:42;;;;;;;3.85;2.35;;;;;;;25.68;33.35;101804.38;5070830;28;20112;-77